Justine Foss — WYL4978 — position and weather

sailwx.info

Track history (hours):
 
Tides and Currents Weather Stations Pressure Air Temp Water Temp Dewpoint Dewpoint Depression Visibility Wind Speed Wind Dir Waves Ship Positions

Justine Foss

Owner: FOSS MARITIME CO, SEATTLE, WA. More information available from US FCC via Universal Licensing System and Coast Guard Vessel Documentation Center.

Last reported at 2018-Jun-17 21:36 UTC. Time now 2018-Jul-17 07:35 UTC.
Position N 54°25' W 131°14'.
Warning: this ship's position is 29 days out of date.

Type: Towing. MMSI: 303275000.

Date/timePositionNaut miles runAvg speedWind from/ knotsBaromVisibWave heightAir tempDewpointWater temp
2018-Jun-17 21:36N 54°25' W 131°14'1 9.3
2018-Jun-17 21:27N 54°24' W 131°13'4 8.9
2018-Jun-17 21:00N 54°20' W 131°10'5 8.8
2018-Jun-17 20:29N 54°16' W 131°06'4 8.7
2018-Jun-17 20:00N 54°12' W 131°03'5 9.4
2018-Jun-17 19:30N 54°08' W 130°60'5 9.8
2018-Jun-17 18:59N 54°04' W 130°56'510.1
2018-Jun-17 18:31N 53°59' W 130°53'510.0
2018-Jun-17 18:00N 53°55' W 130°49'510.8
2018-Jun-17 17:30N 53°50' W 130°44'910.6
2018-Jun-17 16:39N 53°44' W 130°34'210.6
2018-Jun-17 16:29N 53°42' W 130°32'17 9.2
2018-Jun-17 14:41N 53°32' W 130°09'2 9.1
2018-Jun-17 14:30N 53°31' W 130°07'65 9.6
2018-Jun-17 07:46N 52°41' W 128°59'511.2
2018-Jun-17 07:17N 52°37' W 128°54'311.0
2018-Jun-17 07:01N 52°34' W 128°54'510.5
2018-Jun-17 06:30N 52°29' W 128°52'511.0
2018-Jun-17 06:00N 52°23' W 128°50'510.9
2018-Jun-17 05:31N 52°18' W 128°49'5 9.8
2018-Jun-17 05:00N 52°13' W 128°48'5 9.1
2018-Jun-17 04:30N 52°08' W 128°47'5 9.0
2018-Jun-17 04:00N 52°04' W 128°46'5 9.2
2018-Jun-17 03:31N 51°59' W 128°46'4 8.8
2018-Jun-17 03:01N 51°55' W 128°45'4 8.7
2018-Jun-17 02:31N 51°51' W 128°44'4 8.7
2018-Jun-17 02:00N 51°46' W 128°43'4 8.4
2018-Jun-17 01:30N 51°42' W 128°42'4 8.2
2018-Jun-17 01:00N 51°38' W 128°41'4 8.3
2018-Jun-17 00:31N 51°34' W 128°41'4 8.3
2018-Jun-17 00:01N 51°30' W 128°40'4 8.6
2018-Jun-16 23:30N 51°26' W 128°39'4 9.0
2018-Jun-16 23:00N 51°21' W 128°37'4 8.9
2018-Jun-16 22:30N 51°17' W 128°36'5 9.2
2018-Jun-16 22:00N 51°12' W 128°35'5 9.3
2018-Jun-16 21:30N 51°08' W 128°34'5 9.1
2018-Jun-16 21:00N 51°03' W 128°32'5 9.8
2018-Jun-16 20:30N 50°58' W 128°32'5 9.9
2018-Jun-16 20:01N 50°53' W 128°31'510.3
2018-Jun-16 19:30N 50°48' W 128°30'510.6
2018-Jun-16 19:00N 50°43' W 128°27'910.2
2018-Jun-16 18:10N 50°35' W 128°23'210.0
2018-Jun-16 17:59N 50°34' W 128°21'103 8.0
2018-Jun-16 05:05N 49°18' W 126°33'1 6.3
2018-Jun-16 04:59N 49°18' W 126°32'4 6.6
2018-Jun-16 04:20N 49°15' W 126°27'3 6.7
2018-Jun-16 03:52N 49°13' W 126°25'3 6.0
2018-Jun-16 03:26N 49°10' W 126°24'145 7.1
2018-Jun-15 06:57N 46°59' W 124°49'4 9.9
2018-Jun-15 06:30N 46°56' W 124°45'510.7
2018-Jun-15 06:00N 46°51' W 124°41'611.0
2018-Jun-15 05:30N 46°47' W 124°37'611.1
2018-Jun-15 05:00N 46°42' W 124°32'611.2
2018-Jun-15 04:31N 46°37' W 124°28'510.8
2018-Jun-15 04:00N 46°33' W 124°24'1111.2
2018-Jun-15 03:03N 46°24' W 124°15'010.9
2018-Jun-15 03:01N 46°23' W 124°15'611.5
2018-Jun-15 02:30N 46°19' W 124°10'510.2
2018-Jun-15 02:01N 46°15' W 124°05'914.2
2018-Jun-15 01:21N 46°11' W 123°52'0 1.4
2018-Jun-15 01:01N 46°11' W 123°52'0 0.0
2018-Jun-15 00:31N 46°11' W 123°52'0 0.0
2018-Jun-15 00:01N 46°11' W 123°52'0 0.0
2018-Jun-14 23:30N 46°11' W 123°52'0 0.0
2018-Jun-14 23:01N 46°11' W 123°52'0 0.0
2018-Jun-14 22:31N 46°11' W 123°52'0 0.0
2018-Jun-14 22:01N 46°11' W 123°52'1 1.9
2018-Jun-14 21:31N 46°12' W 123°50'0 0.0
2018-Jun-14 21:00N 46°12' W 123°50'0 0.0
2018-Jun-14 20:30N 46°12' W 123°50'0 0.0
2018-Jun-14 20:00N 46°12' W 123°50'0 0.0
2018-Jun-14 19:30N 46°12' W 123°50'0 0.0
2018-Jun-14 19:00N 46°12' W 123°50'0 0.0
2018-Jun-14 18:30N 46°12' W 123°50'0 0.0
2018-Jun-14 18:00N 46°12' W 123°50'0 0.0
2018-Jun-14 17:30N 46°12' W 123°50'0 0.0
2018-Jun-14 17:00N 46°12' W 123°50'0 0.0
2018-Jun-14 16:30N 46°12' W 123°50'0 0.0
2018-Jun-14 16:00N 46°12' W 123°50'0 0.0
2018-Jun-14 15:27N 46°12' W 123°50'0 0.0
2018-Jun-14 15:00N 46°12' W 123°50'0 0.0
2018-Jun-14 14:21N 46°12' W 123°50'0 0.0
2018-Jun-14 14:00N 46°12' W 123°50'0 0.0
2018-Jun-14 13:30N 46°12' W 123°50'0 0.0
2018-Jun-14 13:00N 46°12' W 123°50'0 0.0
2018-Jun-14 12:30N 46°12' W 123°50'0 0.0
2018-Jun-14 12:00N 46°12' W 123°50'0 0.0
2018-Jun-14 11:30N 46°12' W 123°50'0 0.0
2018-Jun-14 11:00N 46°12' W 123°50'0 0.0
2018-Jun-14 10:30N 46°12' W 123°50'0 0.0
2018-Jun-14 10:00N 46°12' W 123°50'0 0.0
2018-Jun-14 09:30N 46°12' W 123°50'0 0.0
2018-Jun-14 09:00N 46°12' W 123°50'0 0.0
2018-Jun-14 08:30N 46°12' W 123°50'0 0.0
2018-Jun-14 08:00N 46°12' W 123°50'0 0.0
2018-Jun-14 07:30N 46°12' W 123°50'0 0.0
2018-Jun-14 06:57N 46°12' W 123°50'0 0.0
2018-Jun-14 06:30N 46°12' W 123°50'0 0.0
2018-Jun-14 06:00N 46°12' W 123°50'0 0.0
2018-Jun-14 05:21N 46°12' W 123°50'0 0.0
2018-Jun-14 05:00N 46°12' W 123°50'0 0.0
2018-Jun-14 04:30N 46°12' W 123°50'0 0.0
2018-Jun-14 04:00N 46°12' W 123°50'0 0.0
2018-Jun-14 03:18N 46°12' W 123°50'0 0.0
2018-Jun-14 03:00N 46°12' W 123°50'0 0.0
2018-Jun-14 02:30N 46°12' W 123°50'0 0.0
2018-Jun-14 02:00N 46°12' W 123°50'0 0.0
2018-Jun-14 01:30N 46°12' W 123°50'0 0.0
2018-Jun-14 01:00N 46°12' W 123°50'0 0.0
2018-Jun-14 00:31N 46°12' W 123°50'4 8.7
2018-Jun-14 00:00N 46°13' W 123°45'613.1
2018-Jun-13 23:30N 46°15' W 123°36'612.0
2018-Jun-13 23:00N 46°15' W 123°27'611.4
2018-Jun-13 22:30N 46°10' W 123°24'611.6
2018-Jun-13 22:00N 46°09' W 123°16'612.1
2018-Jun-13 21:30N 46°11' W 123°08'713.3
2018-Jun-13 21:00N 46°08' W 122°60'4 7.5
2018-Jun-13 20:31N 46°05' W 122°56'0 0.0
2018-Jun-13 19:52N 46°05' W 122°56'0 0.0
2018-Jun-13 19:28N 46°05' W 122°56'0 0.0
2018-Jun-13 18:55N 46°05' W 122°56'0 0.0
2018-Jun-13 18:16N 46°05' W 122°56'0 0.0
2018-Jun-13 17:49N 46°05' W 122°56'0 0.0
2018-Jun-13 17:16N 46°05' W 122°56'0 0.0
2018-Jun-13 16:43N 46°05' W 122°56'0 0.0
2018-Jun-13 16:28N 46°05' W 122°56'0 0.0
2018-Jun-13 15:58N 46°05' W 122°56'0 0.0
2018-Jun-13 15:28N 46°05' W 122°56'0 0.0
2018-Jun-13 14:55N 46°05' W 122°56'0 0.0
2018-Jun-13 14:25N 46°05' W 122°56'0 0.0
2018-Jun-13 13:58N 46°05' W 122°56'0 0.0
2018-Jun-13 13:28N 46°05' W 122°56'0 0.0
2018-Jun-13 12:55N 46°05' W 122°56'0 0.0
2018-Jun-13 12:28N 46°05' W 122°56'0 0.0
2018-Jun-13 11:55N 46°05' W 122°56'0 0.0
2018-Jun-13 11:28N 46°05' W 122°56'0 0.0
2018-Jun-13 10:55N 46°05' W 122°56'0 0.0
2018-Jun-13 10:28N 46°05' W 122°56'0 0.0
2018-Jun-13 09:58N 46°05' W 122°56'0 0.0
2018-Jun-13 09:28N 46°05' W 122°56'0 0.0
2018-Jun-13 08:58N 46°05' W 122°56'0 0.0
2018-Jun-13 08:28N 46°05' W 122°56'0 0.0
2018-Jun-13 07:58N 46°05' W 122°56'0 0.0
2018-Jun-13 07:28N 46°05' W 122°56'0 0.0
2018-Jun-13 06:52N 46°05' W 122°56'0 0.0
2018-Jun-13 06:07N 46°05' W 122°56'0 0.0
2018-Jun-13 05:58N 46°05' W 122°56'0 0.0
2018-Jun-13 05:13N 46°05' W 122°56'0 0.0
2018-Jun-13 04:55N 46°05' W 122°56'0 0.0
2018-Jun-13 04:19N 46°05' W 122°56'0 0.0
2018-Jun-13 03:46N 46°05' W 122°56'0 0.0
2018-Jun-13 03:22N 46°05' W 122°56'0 0.0
2018-Jun-13 02:58N 46°05' W 122°56'0 0.0
2018-Jun-13 02:10N 46°05' W 122°56'0 0.0
2018-Jun-13 01:58N 46°05' W 122°56'0 0.0
2018-Jun-13 01:25N 46°05' W 122°56'0 0.0
2018-Jun-13 00:58N 46°05' W 122°56'0 0.0
2018-Jun-13 00:22N 46°05' W 122°56'0 0.0
2018-Jun-12 23:52N 46°05' W 122°56'0 0.0
2018-Jun-12 23:28N 46°05' W 122°56'0 0.0
2018-Jun-12 22:58N 46°05' W 122°56'0 0.0
2018-Jun-12 22:28N 46°05' W 122°56'0 0.0
2018-Jun-12 21:58N 46°05' W 122°56'0 0.0
2018-Jun-12 21:19N 46°05' W 122°56'0 0.0
2018-Jun-12 20:55N 46°05' W 122°56'0 0.0
2018-Jun-12 20:28N 46°05' W 122°56'0 0.0
2018-Jun-12 19:58N 46°05' W 122°56'0 0.0
2018-Jun-12 19:28N 46°05' W 122°56'0 0.0
2018-Jun-12 18:55N 46°05' W 122°56'0 0.0
2018-Jun-12 18:28N 46°05' W 122°56'0 0.0
2018-Jun-12 17:58N 46°05' W 122°56'0 0.0
2018-Jun-12 17:01N 46°05' W 122°56'0 0.0
2018-Jun-12 16:58N 46°05' W 122°56'0 0.0
2018-Jun-12 16:25N 46°05' W 122°56'0 0.0
2018-Jun-12 15:58N 46°05' W 122°56'0 0.0
2018-Jun-12 15:22N 46°05' W 122°56'0 0.0
2018-Jun-12 14:49N 46°05' W 122°56'0 0.0
2018-Jun-12 14:28N 46°05' W 122°56'0 0.0
2018-Jun-12 13:55N 46°05' W 122°56'0 0.0
2018-Jun-12 13:28N 46°05' W 122°56'0 0.0
2018-Jun-12 12:55N 46°05' W 122°56'0 0.0
2018-Jun-12 12:28N 46°05' W 122°56'0 0.0
2018-Jun-12 11:58N 46°05' W 122°56'0 0.0
2018-Jun-12 11:10N 46°05' W 122°56'0 0.0
2018-Jun-12 10:58N 46°05' W 122°56'0 0.0
2018-Jun-12 10:28N 46°05' W 122°56'0 0.0
2018-Jun-12 09:52N 46°05' W 122°56'0 0.0
2018-Jun-12 09:28N 46°05' W 122°56'0 0.0
2018-Jun-12 08:58N 46°05' W 122°56'0 0.0
2018-Jun-12 08:28N 46°05' W 122°56'0 0.0
2018-Jun-12 07:55N 46°05' W 122°56'0 0.0
2018-Jun-12 07:28N 46°05' W 122°56'0 0.0
2018-Jun-12 06:40N 46°05' W 122°56'0 0.0
2018-Jun-12 06:28N 46°05' W 122°56'0 0.0
2018-Jun-12 05:55N 46°05' W 122°56'0 0.0
2018-Jun-12 04:58N 46°05' W 122°56'0 0.0
2018-Jun-12 04:16N 46°05' W 122°56'0 0.0
2018-Jun-12 03:16N 46°05' W 122°56'0 0.0
2018-Jun-12 02:55N 46°05' W 122°56'0 0.0
2018-Jun-12 02:16N 46°05' W 122°56'0 0.0
2018-Jun-12 01:58N 46°05' W 122°56'0 0.0
2018-Jun-12 01:28N 46°05' W 122°56'0 0.0
2018-Jun-12 00:55N 46°05' W 122°56'0 0.0
2018-Jun-12 00:19N 46°05' W 122°56'0 0.0
2018-Jun-11 23:58N 46°05' W 122°56'0 0.0
2018-Jun-11 23:28N 46°05' W 122°56'0 0.0
2018-Jun-11 22:58N 46°05' W 122°56'0 0.0
2018-Jun-11 22:25N 46°05' W 122°56'0 0.0
2018-Jun-11 21:40N 46°05' W 122°56'0 0.0
2018-Jun-11 21:16N 46°05' W 122°56'0 0.0
2018-Jun-11 20:52N 46°05' W 122°56'0 0.0
2018-Jun-11 20:28N 46°05' W 122°56'0 0.0
2018-Jun-11 19:58N 46°05' W 122°56'0 0.0
2018-Jun-11 19:28N 46°05' W 122°56'0 0.0
2018-Jun-11 18:58N 46°05' W 122°56'0 0.0
2018-Jun-11 18:28N 46°05' W 122°56'0 0.0
2018-Jun-11 17:31N 46°05' W 122°56'0 0.0
2018-Jun-11 17:28N 46°05' W 122°56'0 0.0
2018-Jun-11 16:58N 46°05' W 122°56'0 0.0
2018-Jun-11 16:28N 46°05' W 122°56'0 0.0
2018-Jun-11 15:37N 46°05' W 122°56'0 0.0
2018-Jun-11 15:22N 46°05' W 122°56'0 0.0
2018-Jun-11 14:58N 46°05' W 122°56'0 0.0
2018-Jun-11 14:22N 46°05' W 122°56'0 0.0
2018-Jun-11 13:58N 46°05' W 122°56'0 0.0
2018-Jun-11 13:28N 46°05' W 122°56'0 0.0
2018-Jun-11 12:58N 46°05' W 122°56'0 0.0
2018-Jun-11 12:28N 46°05' W 122°56'0 0.0
2018-Jun-11 11:19N 46°05' W 122°56'0 0.0
2018-Jun-11 10:04N 46°05' W 122°56'0 0.0
2018-Jun-11 09:58N 46°05' W 122°56'0 0.0
2018-Jun-11 09:19N 46°05' W 122°56'0 0.0
2018-Jun-11 09:01N 46°05' W 122°56'0 0.0
2018-Jun-11 08:28N 46°05' W 122°56'0 0.0
2018-Jun-11 07:58N 46°05' W 122°56'0 0.0
2018-Jun-11 07:22N 46°05' W 122°56'0 0.0
2018-Jun-11 06:58N 46°05' W 122°56'0 0.0
2018-Jun-11 06:28N 46°05' W 122°56'0 0.0
2018-Jun-11 05:55N 46°05' W 122°56'0 0.0
2018-Jun-11 05:22N 46°05' W 122°56'0 0.0
2018-Jun-11 04:07N 46°05' W 122°56'0 0.0
2018-Jun-11 03:58N 46°05' W 122°56'0 0.0
2018-Jun-11 03:27N 46°05' W 122°56'0 0.0
2018-Jun-11 02:58N 46°05' W 122°56'0 0.0
2018-Jun-11 02:28N 46°05' W 122°56'0 0.0
2018-Jun-11 01:46N 46°05' W 122°56'0 0.0
2018-Jun-11 00:55N 46°05' W 122°56'0 0.0
2018-Jun-11 00:15N 46°05' W 122°56'0 0.0
2018-Jun-10 23:57N 46°05' W 122°56'0 0.0
2018-Jun-10 23:31N 46°05' W 122°56'0 0.0
2018-Jun-10 22:55N 46°05' W 122°56'0 0.0
2018-Jun-10 22:24N 46°05' W 122°56'0 0.0
2018-Jun-10 22:01N 46°05' W 122°56'0 0.0
2018-Jun-10 21:19N 46°05' W 122°56'0 0.0
2018-Jun-10 20:58N 46°05' W 122°56'0 0.0
2018-Jun-10 20:28N 46°05' W 122°56'0 0.0
2018-Jun-10 19:58N 46°05' W 122°56'0 0.0
2018-Jun-10 19:31N 46°05' W 122°56'0 0.0
2018-Jun-10 19:00N 46°05' W 122°56'0 0.0
2018-Jun-10 18:22N 46°05' W 122°56'0 0.0
2018-Jun-10 17:39N 46°05' W 122°56'0 0.0
2018-Jun-10 16:54N 46°05' W 122°56'0 0.0
2018-Jun-10 16:27N 46°05' W 122°56'0 0.0
2018-Jun-10 15:37N 46°05' W 122°56'0 0.0
2018-Jun-10 15:31N 46°05' W 122°56'0 0.0
2018-Jun-10 14:57N 46°05' W 122°56'0 0.0
2018-Jun-10 13:57N 46°05' W 122°56'0 0.0
2018-Jun-10 13:30N 46°05' W 122°56'0 0.0
2018-Jun-10 12:58N 46°05' W 122°56'0 0.0
2018-Jun-10 12:31N 46°05' W 122°56'0 0.0
2018-Jun-10 12:00N 46°05' W 122°56'0 0.0
2018-Jun-10 11:31N 46°05' W 122°56'0 0.0
2018-Jun-10 10:57N 46°05' W 122°56'0 0.0
2018-Jun-10 10:24N 46°05' W 122°56'0 0.0
2018-Jun-10 09:55N 46°05' W 122°56'0 0.0
2018-Jun-10 09:22N 46°05' W 122°56'0 0.0
2018-Jun-10 08:58N 46°05' W 122°56'0 0.0
2018-Jun-10 08:03N 46°05' W 122°56'0 0.0
2018-Jun-10 08:00N 46°05' W 122°56'0 0.0
2018-Jun-10 07:10N 46°05' W 122°56'0 0.0
2018-Jun-10 06:58N 46°05' W 122°56'0 0.0
2018-Jun-10 06:31N 46°05' W 122°56'0 0.0
2018-Jun-10 05:57N 46°05' W 122°56'0 0.0
2018-Jun-10 05:25N 46°05' W 122°56'0 0.0
2018-Jun-10 04:57N 46°05' W 122°56'0 0.0
2018-Jun-10 04:30N 46°05' W 122°56'0 0.0
2018-Jun-10 03:55N 46°05' W 122°56'0 0.0
2018-Jun-10 03:09N 46°05' W 122°56'0 0.0
2018-Jun-10 02:57N 46°05' W 122°56'0 0.0
2018-Jun-10 02:12N 46°05' W 122°56'0 0.0
2018-Jun-10 01:57N 46°05' W 122°56'0 0.0
2018-Jun-10 01:27N 46°05' W 122°56'0 0.0
2018-Jun-10 00:18N 46°05' W 122°56'0 0.0
2018-Jun-10 00:00N 46°05' W 122°56'0 0.0
2018-Jun-09 23:30N 46°05' W 122°56'0 0.0
2018-Jun-09 23:00N 46°05' W 122°56'0 0.0
2018-Jun-09 22:30N 46°05' W 122°56'0 0.0
2018-Jun-09 21:51N 46°05' W 122°56'0 0.0
2018-Jun-09 21:30N 46°05' W 122°56'0 0.0
2018-Jun-09 21:00N 46°05' W 122°56'0 0.0
2018-Jun-09 20:30N 46°05' W 122°56'0 0.0
2018-Jun-09 20:00N 46°05' W 122°56'0 0.0
2018-Jun-09 19:30N 46°05' W 122°56'0 0.0
2018-Jun-09 18:48N 46°05' W 122°56'0 0.0
2018-Jun-09 18:27N 46°05' W 122°56'0 0.0
2018-Jun-09 18:01N 46°05' W 122°56'0 0.0
2018-Jun-09 17:30N 46°05' W 122°56'0 0.0
2018-Jun-09 17:00N 46°05' W 122°56'0 0.0
2018-Jun-09 16:30N 46°05' W 122°56'0 0.0
2018-Jun-09 15:45N 46°05' W 122°56'0 0.0
2018-Jun-09 15:30N 46°05' W 122°56'0 0.0
2018-Jun-09 13:45N 46°05' W 122°56'0 0.0
2018-Jun-09 13:27N 46°05' W 122°56'0 0.0
2018-Jun-09 12:57N 46°05' W 122°56'0 0.0
2018-Jun-09 12:30N 46°05' W 122°56'0 0.0
2018-Jun-09 12:00N 46°05' W 122°56'0 0.0
2018-Jun-09 11:30N 46°05' W 122°56'0 0.0
2018-Jun-09 11:00N 46°05' W 122°56'0 0.0
2018-Jun-09 10:21N 46°05' W 122°56'0 0.0
2018-Jun-09 10:00N 46°05' W 122°56'0 0.0
2018-Jun-09 09:24N 46°05' W 122°56'0 0.0
2018-Jun-09 09:00N 46°05' W 122°56'0 0.0
2018-Jun-09 08:30N 46°05' W 122°56'0 0.0
2018-Jun-09 08:00N 46°05' W 122°56'0 0.0
2018-Jun-09 07:12N 46°05' W 122°56'0 0.0
2018-Jun-09 06:57N 46°05' W 122°56'0 0.0
2018-Jun-09 06:27N 46°05' W 122°56'0 0.0
2018-Jun-09 06:00N 46°05' W 122°56'0 0.0
2018-Jun-09 05:30N 46°05' W 122°56'0 0.0
2018-Jun-09 05:00N 46°05' W 122°56'0 0.0
2018-Jun-09 04:24N 46°05' W 122°56'0 0.0
2018-Jun-09 03:45N 46°05' W 122°56'0 0.0
2018-Jun-09 03:12N 46°05' W 122°56'0 0.0
2018-Jun-09 02:48N 46°05' W 122°56'0 0.0
2018-Jun-09 02:30N 46°05' W 122°56'0 0.0
2018-Jun-09 01:51N 46°05' W 122°56'0 0.0
2018-Jun-09 00:33N 46°05' W 122°56'0 0.0
2018-Jun-09 00:27N 46°05' W 122°56'0 0.0
2018-Jun-09 00:00N 46°05' W 122°56'0 0.0
2018-Jun-08 23:30N 46°05' W 122°56'0 0.0
2018-Jun-08 23:00N 46°05' W 122°56'0 0.0
2018-Jun-08 22:24N 46°05' W 122°56'0 0.0
2018-Jun-08 21:51N 46°05' W 122°56'0 0.0
2018-Jun-08 21:30N 46°05' W 122°56'0 0.0
2018-Jun-08 20:45N 46°05' W 122°56'0 0.0
2018-Jun-08 20:27N 46°05' W 122°56'0 0.0
2018-Jun-08 20:00N 46°05' W 122°56'0 0.0
2018-Jun-08 19:30N 46°05' W 122°56'0 0.0
2018-Jun-08 18:57N 46°05' W 122°56'0 0.0
2018-Jun-08 18:30N 46°05' W 122°56'0 0.0
2018-Jun-08 17:57N 46°05' W 122°56'0 0.0
2018-Jun-08 16:48N 46°05' W 122°56'0 0.0
2018-Jun-08 16:27N 46°05' W 122°56'0 0.0
2018-Jun-08 15:45N 46°05' W 122°56'0 0.0
2018-Jun-08 15:27N 46°05' W 122°56'0 0.0
2018-Jun-08 14:48N 46°05' W 122°56'0 0.0
2018-Jun-08 14:27N 46°05' W 122°56'0 0.0
2018-Jun-08 14:00N 46°05' W 122°56'0 0.0
2018-Jun-08 13:27N 46°05' W 122°56'0 0.0
2018-Jun-08 13:00N 46°05' W 122°56'0 0.0
2018-Jun-08 12:30N 46°05' W 122°56'0 0.0
2018-Jun-08 11:57N 46°05' W 122°56'0 0.0
2018-Jun-08 11:27N 46°05' W 122°56'0 0.0
2018-Jun-08 11:00N 46°05' W 122°56'0 0.0
2018-Jun-08 10:24N 46°05' W 122°56'0 0.0
2018-Jun-08 09:39N 46°05' W 122°56'0 0.0
2018-Jun-08 09:30N 46°05' W 122°56'0 0.0
2018-Jun-08 08:54N 46°05' W 122°56'0 0.0
2018-Jun-08 08:30N 46°05' W 122°56'0 0.0
2018-Jun-08 07:54N 46°05' W 122°56'0 0.0
2018-Jun-08 07:30N 46°05' W 122°56'0 0.0
2018-Jun-08 06:57N 46°05' W 122°56'0 0.0
2018-Jun-08 06:27N 46°05' W 122°56'0 0.0
2018-Jun-08 06:00N 46°05' W 122°56'0 0.0
2018-Jun-08 05:30N 46°05' W 122°56'0 0.0
2018-Jun-08 04:57N 46°05' W 122°56'0 0.0
2018-Jun-08 04:30N 46°05' W 122°56'0 0.0
2018-Jun-08 03:57N 46°05' W 122°56'0 0.0
2018-Jun-08 03:30N 46°05' W 122°56'0 0.0
2018-Jun-08 02:27N 46°05' W 122°56'0 0.0
2018-Jun-08 02:00N 46°05' W 122°56'0 0.0
2018-Jun-08 01:30N 46°05' W 122°56'0 0.0
2018-Jun-08 00:42N 46°05' W 122°56'0 0.0
2018-Jun-08 00:30N 46°05' W 122°56'0 0.0
2018-Jun-08 00:00N 46°05' W 122°56'0 0.0
2018-Jun-07 23:30N 46°05' W 122°56'0 0.0
2018-Jun-07 23:00N 46°05' W 122°56'0 0.0
2018-Jun-07 22:09N 46°05' W 122°56'0 0.0
2018-Jun-07 22:00N 46°05' W 122°56'  
Track history (hours):
 
Tides and Currents Weather Stations Pressure Air Temp Water Temp Dewpoint Dewpoint Depression Visibility Wind Speed Wind Dir Waves Ship Positions

Justine Foss

Owner: FOSS MARITIME CO, SEATTLE, WA. More information available from US FCC via Universal Licensing System and Coast Guard Vessel Documentation Center.

Last reported at 2018-Jun-17 21:36 UTC. Time now 2018-Jul-17 07:35 UTC.
Position N 54°25' W 131°14'.
Warning: this ship's position is 29 days out of date.

Type: Towing. MMSI: 303275000.

Date/timePositionNaut miles runAvg speedWind from/ knotsBaromVisibWave heightAir tempDewpointWater temp
2018-Jun-17 21:36N 54°25' W 131°14'1 9.3
2018-Jun-17 21:27N 54°24' W 131°13'4 8.9
2018-Jun-17 21:00N 54°20' W 131°10'5 8.8
2018-Jun-17 20:29N 54°16' W 131°06'4 8.7
2018-Jun-17 20:00N 54°12' W 131°03'5 9.4
2018-Jun-17 19:30N 54°08' W 130°60'5 9.8
2018-Jun-17 18:59N 54°04' W 130°56'510.1
2018-Jun-17 18:31N 53°59' W 130°53'510.0
2018-Jun-17 18:00N 53°55' W 130°49'510.8
2018-Jun-17 17:30N 53°50' W 130°44'910.6
2018-Jun-17 16:39N 53°44' W 130°34'210.6
2018-Jun-17 16:29N 53°42' W 130°32'17 9.2
2018-Jun-17 14:41N 53°32' W 130°09'2 9.1
2018-Jun-17 14:30N 53°31' W 130°07'65 9.6
2018-Jun-17 07:46N 52°41' W 128°59'511.2
2018-Jun-17 07:17N 52°37' W 128°54'311.0
2018-Jun-17 07:01N 52°34' W 128°54'510.5
2018-Jun-17 06:30N 52°29' W 128°52'511.0
2018-Jun-17 06:00N 52°23' W 128°50'510.9
2018-Jun-17 05:31N 52°18' W 128°49'5 9.8
2018-Jun-17 05:00N 52°13' W 128°48'5 9.1
2018-Jun-17 04:30N 52°08' W 128°47'5 9.0
2018-Jun-17 04:00N 52°04' W 128°46'5 9.2
2018-Jun-17 03:31N 51°59' W 128°46'4 8.8
2018-Jun-17 03:01N 51°55' W 128°45'4 8.7
2018-Jun-17 02:31N 51°51' W 128°44'4 8.7
2018-Jun-17 02:00N 51°46' W 128°43'4 8.4
2018-Jun-17 01:30N 51°42' W 128°42'4 8.2
2018-Jun-17 01:00N 51°38' W 128°41'4 8.3
2018-Jun-17 00:31N 51°34' W 128°41'4 8.3
2018-Jun-17 00:01N 51°30' W 128°40'4 8.6
2018-Jun-16 23:30N 51°26' W 128°39'4 9.0
2018-Jun-16 23:00N 51°21' W 128°37'4 8.9
2018-Jun-16 22:30N 51°17' W 128°36'5 9.2
2018-Jun-16 22:00N 51°12' W 128°35'5 9.3
2018-Jun-16 21:30N 51°08' W 128°34'5 9.1
2018-Jun-16 21:00N 51°03' W 128°32'5 9.8
2018-Jun-16 20:30N 50°58' W 128°32'5 9.9
2018-Jun-16 20:01N 50°53' W 128°31'510.3
2018-Jun-16 19:30N 50°48' W 128°30'510.6
2018-Jun-16 19:00N 50°43' W 128°27'910.2
2018-Jun-16 18:10N 50°35' W 128°23'210.0
2018-Jun-16 17:59N 50°34' W 128°21'103 8.0
2018-Jun-16 05:05N 49°18' W 126°33'1 6.3
2018-Jun-16 04:59N 49°18' W 126°32'4 6.6
2018-Jun-16 04:20N 49°15' W 126°27'3 6.7
2018-Jun-16 03:52N 49°13' W 126°25'3 6.0
2018-Jun-16 03:26N 49°10' W 126°24'145 7.1
2018-Jun-15 06:57N 46°59' W 124°49'4 9.9
2018-Jun-15 06:30N 46°56' W 124°45'510.7
2018-Jun-15 06:00N 46°51' W 124°41'611.0
2018-Jun-15 05:30N 46°47' W 124°37'611.1
2018-Jun-15 05:00N 46°42' W 124°32'611.2
2018-Jun-15 04:31N 46°37' W 124°28'510.8
2018-Jun-15 04:00N 46°33' W 124°24'1111.2
2018-Jun-15 03:03N 46°24' W 124°15'010.9
2018-Jun-15 03:01N 46°23' W 124°15'611.5
2018-Jun-15 02:30N 46°19' W 124°10'510.2
2018-Jun-15 02:01N 46°15' W 124°05'914.2
2018-Jun-15 01:21N 46°11' W 123°52'0 1.4
2018-Jun-15 01:01N 46°11' W 123°52'0 0.0
2018-Jun-15 00:31N 46°11' W 123°52'0 0.0
2018-Jun-15 00:01N 46°11' W 123°52'0 0.0
2018-Jun-14 23:30N 46°11' W 123°52'0 0.0
2018-Jun-14 23:01N 46°11' W 123°52'0 0.0
2018-Jun-14 22:31N 46°11' W 123°52'0 0.0
2018-Jun-14 22:01N 46°11' W 123°52'1 1.9
2018-Jun-14 21:31N 46°12' W 123°50'0 0.0
2018-Jun-14 21:00N 46°12' W 123°50'0 0.0
2018-Jun-14 20:30N 46°12' W 123°50'0 0.0
2018-Jun-14 20:00N 46°12' W 123°50'0 0.0
2018-Jun-14 19:30N 46°12' W 123°50'0 0.0
2018-Jun-14 19:00N 46°12' W 123°50'0 0.0
2018-Jun-14 18:30N 46°12' W 123°50'0 0.0
2018-Jun-14 18:00N 46°12' W 123°50'0 0.0
2018-Jun-14 17:30N 46°12' W 123°50'0 0.0
2018-Jun-14 17:00N 46°12' W 123°50'0 0.0
2018-Jun-14 16:30N 46°12' W 123°50'0 0.0
2018-Jun-14 16:00N 46°12' W 123°50'0 0.0
2018-Jun-14 15:27N 46°12' W 123°50'0 0.0
2018-Jun-14 15:00N 46°12' W 123°50'0 0.0
2018-Jun-14 14:21N 46°12' W 123°50'0 0.0
2018-Jun-14 14:00N 46°12' W 123°50'0 0.0
2018-Jun-14 13:30N 46°12' W 123°50'0 0.0
2018-Jun-14 13:00N 46°12' W 123°50'0 0.0
2018-Jun-14 12:30N 46°12' W 123°50'0 0.0
2018-Jun-14 12:00N 46°12' W 123°50'0 0.0
2018-Jun-14 11:30N 46°12' W 123°50'0 0.0
2018-Jun-14 11:00N 46°12' W 123°50'0 0.0
2018-Jun-14 10:30N 46°12' W 123°50'0 0.0
2018-Jun-14 10:00N 46°12' W 123°50'0 0.0
2018-Jun-14 09:30N 46°12' W 123°50'0 0.0
2018-Jun-14 09:00N 46°12' W 123°50'0 0.0
2018-Jun-14 08:30N 46°12' W 123°50'0 0.0
2018-Jun-14 08:00N 46°12' W 123°50'0 0.0
2018-Jun-14 07:30N 46°12' W 123°50'0 0.0
2018-Jun-14 06:57N 46°12' W 123°50'0 0.0
2018-Jun-14 06:30N 46°12' W 123°50'0 0.0
2018-Jun-14 06:00N 46°12' W 123°50'0 0.0
2018-Jun-14 05:21N 46°12' W 123°50'0 0.0
2018-Jun-14 05:00N 46°12' W 123°50'0 0.0
2018-Jun-14 04:30N 46°12' W 123°50'0 0.0
2018-Jun-14 04:00N 46°12' W 123°50'0 0.0
2018-Jun-14 03:18N 46°12' W 123°50'0 0.0
2018-Jun-14 03:00N 46°12' W 123°50'0 0.0
2018-Jun-14 02:30N 46°12' W 123°50'0 0.0
2018-Jun-14 02:00N 46°12' W 123°50'0 0.0
2018-Jun-14 01:30N 46°12' W 123°50'0 0.0
2018-Jun-14 01:00N 46°12' W 123°50'0 0.0
2018-Jun-14 00:31N 46°12' W 123°50'4 8.7
2018-Jun-14 00:00N 46°13' W 123°45'613.1
2018-Jun-13 23:30N 46°15' W 123°36'612.0
2018-Jun-13 23:00N 46°15' W 123°27'611.4
2018-Jun-13 22:30N 46°10' W 123°24'611.6
2018-Jun-13 22:00N 46°09' W 123°16'612.1
2018-Jun-13 21:30N 46°11' W 123°08'713.3
2018-Jun-13 21:00N 46°08' W 122°60'4 7.5
2018-Jun-13 20:31N 46°05' W 122°56'0 0.0
2018-Jun-13 19:52N 46°05' W 122°56'0 0.0
2018-Jun-13 19:28N 46°05' W 122°56'0 0.0
2018-Jun-13 18:55N 46°05' W 122°56'0 0.0
2018-Jun-13 18:16N 46°05' W 122°56'0 0.0
2018-Jun-13 17:49N 46°05' W 122°56'0 0.0
2018-Jun-13 17:16N 46°05' W 122°56'0 0.0
2018-Jun-13 16:43N 46°05' W 122°56'0 0.0
2018-Jun-13 16:28N 46°05' W 122°56'0 0.0
2018-Jun-13 15:58N 46°05' W 122°56'0 0.0
2018-Jun-13 15:28N 46°05' W 122°56'0 0.0
2018-Jun-13 14:55N 46°05' W 122°56'0 0.0
2018-Jun-13 14:25N 46°05' W 122°56'0 0.0
2018-Jun-13 13:58N 46°05' W 122°56'0 0.0
2018-Jun-13 13:28N 46°05' W 122°56'0 0.0
2018-Jun-13 12:55N 46°05' W 122°56'0 0.0
2018-Jun-13 12:28N 46°05' W 122°56'0 0.0
2018-Jun-13 11:55N 46°05' W 122°56'0 0.0
2018-Jun-13 11:28N 46°05' W 122°56'0 0.0
2018-Jun-13 10:55N 46°05' W 122°56'0 0.0
2018-Jun-13 10:28N 46°05' W 122°56'0 0.0
2018-Jun-13 09:58N 46°05' W 122°56'0 0.0
2018-Jun-13 09:28N 46°05' W 122°56'0 0.0
2018-Jun-13 08:58N 46°05' W 122°56'0 0.0
2018-Jun-13 08:28N 46°05' W 122°56'0 0.0
2018-Jun-13 07:58N 46°05' W 122°56'0 0.0
2018-Jun-13 07:28N 46°05' W 122°56'0 0.0
2018-Jun-13 06:52N 46°05' W 122°56'0 0.0
2018-Jun-13 06:07N 46°05' W 122°56'0 0.0
2018-Jun-13 05:58N 46°05' W 122°56'0 0.0
2018-Jun-13 05:13N 46°05' W 122°56'0 0.0
2018-Jun-13 04:55N 46°05' W 122°56'0 0.0
2018-Jun-13 04:19N 46°05' W 122°56'0 0.0
2018-Jun-13 03:46N 46°05' W 122°56'0 0.0
2018-Jun-13 03:22N 46°05' W 122°56'0 0.0
2018-Jun-13 02:58N 46°05' W 122°56'0 0.0
2018-Jun-13 02:10N 46°05' W 122°56'0 0.0
2018-Jun-13 01:58N 46°05' W 122°56'0 0.0
2018-Jun-13 01:25N 46°05' W 122°56'0 0.0
2018-Jun-13 00:58N 46°05' W 122°56'0 0.0
2018-Jun-13 00:22N 46°05' W 122°56'0 0.0
2018-Jun-12 23:52N 46°05' W 122°56'0 0.0
2018-Jun-12 23:28N 46°05' W 122°56'0 0.0
2018-Jun-12 22:58N 46°05' W 122°56'0 0.0
2018-Jun-12 22:28N 46°05' W 122°56'0 0.0
2018-Jun-12 21:58N 46°05' W 122°56'0 0.0
2018-Jun-12 21:19N 46°05' W 122°56'0 0.0
2018-Jun-12 20:55N 46°05' W 122°56'0 0.0
2018-Jun-12 20:28N 46°05' W 122°56'0 0.0
2018-Jun-12 19:58N 46°05' W 122°56'0 0.0
2018-Jun-12 19:28N 46°05' W 122°56'0 0.0
2018-Jun-12 18:55N 46°05' W 122°56'0 0.0
2018-Jun-12 18:28N 46°05' W 122°56'0 0.0
2018-Jun-12 17:58N 46°05' W 122°56'0 0.0
2018-Jun-12 17:01N 46°05' W 122°56'0 0.0
2018-Jun-12 16:58N 46°05' W 122°56'0 0.0
2018-Jun-12 16:25N 46°05' W 122°56'0 0.0
2018-Jun-12 15:58N 46°05' W 122°56'0 0.0
2018-Jun-12 15:22N 46°05' W 122°56'0 0.0
2018-Jun-12 14:49N 46°05' W 122°56'0 0.0
2018-Jun-12 14:28N 46°05' W 122°56'0 0.0
2018-Jun-12 13:55N 46°05' W 122°56'0 0.0
2018-Jun-12 13:28N 46°05' W 122°56'0 0.0
2018-Jun-12 12:55N 46°05' W 122°56'0 0.0
2018-Jun-12 12:28N 46°05' W 122°56'0 0.0
2018-Jun-12 11:58N 46°05' W 122°56'0 0.0
2018-Jun-12 11:10N 46°05' W 122°56'0 0.0
2018-Jun-12 10:58N 46°05' W 122°56'0 0.0
2018-Jun-12 10:28N 46°05' W 122°56'0 0.0
2018-Jun-12 09:52N 46°05' W 122°56'0 0.0
2018-Jun-12 09:28N 46°05' W 122°56'0 0.0
2018-Jun-12 08:58N 46°05' W 122°56'0 0.0
2018-Jun-12 08:28N 46°05' W 122°56'0 0.0
2018-Jun-12 07:55N 46°05' W 122°56'0 0.0
2018-Jun-12 07:28N 46°05' W 122°56'0 0.0
2018-Jun-12 06:40N 46°05' W 122°56'0 0.0
2018-Jun-12 06:28N 46°05' W 122°56'0 0.0
2018-Jun-12 05:55N 46°05' W 122°56'0 0.0
2018-Jun-12 04:58N 46°05' W 122°56'0 0.0
2018-Jun-12 04:16N 46°05' W 122°56'0 0.0
2018-Jun-12 03:16N 46°05' W 122°56'0 0.0
2018-Jun-12 02:55N 46°05' W 122°56'0 0.0
2018-Jun-12 02:16N 46°05' W 122°56'0 0.0
2018-Jun-12 01:58N 46°05' W 122°56'0 0.0
2018-Jun-12 01:28N 46°05' W 122°56'0 0.0
2018-Jun-12 00:55N 46°05' W 122°56'0 0.0
2018-Jun-12 00:19N 46°05' W 122°56'0 0.0
2018-Jun-11 23:58N 46°05' W 122°56'0 0.0
2018-Jun-11 23:28N 46°05' W 122°56'0 0.0
2018-Jun-11 22:58N 46°05' W 122°56'0 0.0
2018-Jun-11 22:25N 46°05' W 122°56'0 0.0
2018-Jun-11 21:40N 46°05' W 122°56'0 0.0
2018-Jun-11 21:16N 46°05' W 122°56'0 0.0
2018-Jun-11 20:52N 46°05' W 122°56'0 0.0
2018-Jun-11 20:28N 46°05' W 122°56'0 0.0
2018-Jun-11 19:58N 46°05' W 122°56'0 0.0
2018-Jun-11 19:28N 46°05' W 122°56'0 0.0
2018-Jun-11 18:58N 46°05' W 122°56'0 0.0
2018-Jun-11 18:28N 46°05' W 122°56'0 0.0
2018-Jun-11 17:31N 46°05' W 122°56'0 0.0
2018-Jun-11 17:28N 46°05' W 122°56'0 0.0
2018-Jun-11 16:58N 46°05' W 122°56'0 0.0
2018-Jun-11 16:28N 46°05' W 122°56'0 0.0
2018-Jun-11 15:37N 46°05' W 122°56'0 0.0
2018-Jun-11 15:22N 46°05' W 122°56'0 0.0
2018-Jun-11 14:58N 46°05' W 122°56'0 0.0
2018-Jun-11 14:22N 46°05' W 122°56'0 0.0
2018-Jun-11 13:58N 46°05' W 122°56'0 0.0
2018-Jun-11 13:28N 46°05' W 122°56'0 0.0
2018-Jun-11 12:58N 46°05' W 122°56'0 0.0
2018-Jun-11 12:28N 46°05' W 122°56'0 0.0
2018-Jun-11 11:19N 46°05' W 122°56'0 0.0
2018-Jun-11 10:04N 46°05' W 122°56'0 0.0
2018-Jun-11 09:58N 46°05' W 122°56'0 0.0
2018-Jun-11 09:19N 46°05' W 122°56'0 0.0
2018-Jun-11 09:01N 46°05' W 122°56'0 0.0
2018-Jun-11 08:28N 46°05' W 122°56'0 0.0
2018-Jun-11 07:58N 46°05' W 122°56'0 0.0
2018-Jun-11 07:22N 46°05' W 122°56'0 0.0
2018-Jun-11 06:58N 46°05' W 122°56'0 0.0
2018-Jun-11 06:28N 46°05' W 122°56'0 0.0
2018-Jun-11 05:55N 46°05' W 122°56'0 0.0
2018-Jun-11 05:22N 46°05' W 122°56'0 0.0
2018-Jun-11 04:07N 46°05' W 122°56'0 0.0
2018-Jun-11 03:58N 46°05' W 122°56'0 0.0
2018-Jun-11 03:27N 46°05' W 122°56'0 0.0
2018-Jun-11 02:58N 46°05' W 122°56'0 0.0
2018-Jun-11 02:28N 46°05' W 122°56'0 0.0
2018-Jun-11 01:46N 46°05' W 122°56'0 0.0
2018-Jun-11 00:55N 46°05' W 122°56'0 0.0
2018-Jun-11 00:15N 46°05' W 122°56'0 0.0
2018-Jun-10 23:57N 46°05' W 122°56'0 0.0
2018-Jun-10 23:31N 46°05' W 122°56'0 0.0
2018-Jun-10 22:55N 46°05' W 122°56'0 0.0
2018-Jun-10 22:24N 46°05' W 122°56'0 0.0
2018-Jun-10 22:01N 46°05' W 122°56'0 0.0
2018-Jun-10 21:19N 46°05' W 122°56'0 0.0
2018-Jun-10 20:58N 46°05' W 122°56'0 0.0
2018-Jun-10 20:28N 46°05' W 122°56'0 0.0
2018-Jun-10 19:58N 46°05' W 122°56'0 0.0
2018-Jun-10 19:31N 46°05' W 122°56'0 0.0
2018-Jun-10 19:00N 46°05' W 122°56'0 0.0
2018-Jun-10 18:22N 46°05' W 122°56'0 0.0
2018-Jun-10 17:39N 46°05' W 122°56'0 0.0
2018-Jun-10 16:54N 46°05' W 122°56'0 0.0
2018-Jun-10 16:27N 46°05' W 122°56'0 0.0
2018-Jun-10 15:37N 46°05' W 122°56'0 0.0
2018-Jun-10 15:31N 46°05' W 122°56'0 0.0
2018-Jun-10 14:57N 46°05' W 122°56'0 0.0
2018-Jun-10 13:57N 46°05' W 122°56'0 0.0
2018-Jun-10 13:30N 46°05' W 122°56'0 0.0
2018-Jun-10 12:58N 46°05' W 122°56'0 0.0
2018-Jun-10 12:31N 46°05' W 122°56'0 0.0
2018-Jun-10 12:00N 46°05' W 122°56'0 0.0
2018-Jun-10 11:31N 46°05' W 122°56'0 0.0
2018-Jun-10 10:57N 46°05' W 122°56'0 0.0
2018-Jun-10 10:24N 46°05' W 122°56'0 0.0
2018-Jun-10 09:55N 46°05' W 122°56'0 0.0
2018-Jun-10 09:22N 46°05' W 122°56'0 0.0
2018-Jun-10 08:58N 46°05' W 122°56'0 0.0
2018-Jun-10 08:03N 46°05' W 122°56'0 0.0
2018-Jun-10 08:00N 46°05' W 122°56'0 0.0
2018-Jun-10 07:10N 46°05' W 122°56'0 0.0
2018-Jun-10 06:58N 46°05' W 122°56'0 0.0
2018-Jun-10 06:31N 46°05' W 122°56'0 0.0
2018-Jun-10 05:57N 46°05' W 122°56'0 0.0
2018-Jun-10 05:25N 46°05' W 122°56'0 0.0
2018-Jun-10 04:57N 46°05' W 122°56'0 0.0
2018-Jun-10 04:30N 46°05' W 122°56'0 0.0
2018-Jun-10 03:55N 46°05' W 122°56'0 0.0
2018-Jun-10 03:09N 46°05' W 122°56'0 0.0
2018-Jun-10 02:57N 46°05' W 122°56'0 0.0
2018-Jun-10 02:12N 46°05' W 122°56'0 0.0
2018-Jun-10 01:57N 46°05' W 122°56'0 0.0
2018-Jun-10 01:27N 46°05' W 122°56'0 0.0
2018-Jun-10 00:18N 46°05' W 122°56'0 0.0
2018-Jun-10 00:00N 46°05' W 122°56'0 0.0
2018-Jun-09 23:30N 46°05' W 122°56'0 0.0
2018-Jun-09 23:00N 46°05' W 122°56'0 0.0
2018-Jun-09 22:30N 46°05' W 122°56'0 0.0
2018-Jun-09 21:51N 46°05' W 122°56'0 0.0
2018-Jun-09 21:30N 46°05' W 122°56'0 0.0
2018-Jun-09 21:00N 46°05' W 122°56'0 0.0
2018-Jun-09 20:30N 46°05' W 122°56'0 0.0
2018-Jun-09 20:00N 46°05' W 122°56'0 0.0
2018-Jun-09 19:30N 46°05' W 122°56'0 0.0
2018-Jun-09 18:48N 46°05' W 122°56'0 0.0
2018-Jun-09 18:27N 46°05' W 122°56'0 0.0
2018-Jun-09 18:01N 46°05' W 122°56'0 0.0
2018-Jun-09 17:30N 46°05' W 122°56'0 0.0
2018-Jun-09 17:00N 46°05' W 122°56'0 0.0
2018-Jun-09 16:30N 46°05' W 122°56'0 0.0
2018-Jun-09 15:45N 46°05' W 122°56'0 0.0
2018-Jun-09 15:30N 46°05' W 122°56'0 0.0
2018-Jun-09 13:45N 46°05' W 122°56'0 0.0
2018-Jun-09 13:27N 46°05' W 122°56'0 0.0
2018-Jun-09 12:57N 46°05' W 122°56'0 0.0
2018-Jun-09 12:30N 46°05' W 122°56'0 0.0
2018-Jun-09 12:00N 46°05' W 122°56'0 0.0
2018-Jun-09 11:30N 46°05' W 122°56'0 0.0
2018-Jun-09 11:00N 46°05' W 122°56'0 0.0
2018-Jun-09 10:21N 46°05' W 122°56'0 0.0
2018-Jun-09 10:00N 46°05' W 122°56'0 0.0
2018-Jun-09 09:24N 46°05' W 122°56'0 0.0
2018-Jun-09 09:00N 46°05' W 122°56'0 0.0
2018-Jun-09 08:30N 46°05' W 122°56'0 0.0
2018-Jun-09 08:00N 46°05' W 122°56'0 0.0
2018-Jun-09 07:12N 46°05' W 122°56'0 0.0
2018-Jun-09 06:57N 46°05' W 122°56'0 0.0
2018-Jun-09 06:27N 46°05' W 122°56'0 0.0
2018-Jun-09 06:00N 46°05' W 122°56'0 0.0
2018-Jun-09 05:30N 46°05' W 122°56'0 0.0
2018-Jun-09 05:00N 46°05' W 122°56'0 0.0
2018-Jun-09 04:24N 46°05' W 122°56'0 0.0
2018-Jun-09 03:45N 46°05' W 122°56'0 0.0
2018-Jun-09 03:12N 46°05' W 122°56'0 0.0
2018-Jun-09 02:48N 46°05' W 122°56'0 0.0
2018-Jun-09 02:30N 46°05' W 122°56'0 0.0
2018-Jun-09 01:51N 46°05' W 122°56'0 0.0
2018-Jun-09 00:33N 46°05' W 122°56'0 0.0
2018-Jun-09 00:27N 46°05' W 122°56'0 0.0
2018-Jun-09 00:00N 46°05' W 122°56'0 0.0
2018-Jun-08 23:30N 46°05' W 122°56'0 0.0
2018-Jun-08 23:00N 46°05' W 122°56'0 0.0
2018-Jun-08 22:24N 46°05' W 122°56'0 0.0
2018-Jun-08 21:51N 46°05' W 122°56'0 0.0
2018-Jun-08 21:30N 46°05' W 122°56'0 0.0
2018-Jun-08 20:45N 46°05' W 122°56'0 0.0
2018-Jun-08 20:27N 46°05' W 122°56'0 0.0
2018-Jun-08 20:00N 46°05' W 122°56'0 0.0
2018-Jun-08 19:30N 46°05' W 122°56'0 0.0
2018-Jun-08 18:57N 46°05' W 122°56'0 0.0
2018-Jun-08 18:30N 46°05' W 122°56'0 0.0
2018-Jun-08 17:57N 46°05' W 122°56'0 0.0
2018-Jun-08 16:48N 46°05' W 122°56'0 0.0
2018-Jun-08 16:27N 46°05' W 122°56'0 0.0
2018-Jun-08 15:45N 46°05' W 122°56'0 0.0
2018-Jun-08 15:27N 46°05' W 122°56'0 0.0
2018-Jun-08 14:48N 46°05' W 122°56'0 0.0
2018-Jun-08 14:27N 46°05' W 122°56'0 0.0
2018-Jun-08 14:00N 46°05' W 122°56'0 0.0
2018-Jun-08 13:27N 46°05' W 122°56'0 0.0
2018-Jun-08 13:00N 46°05' W 122°56'0 0.0
2018-Jun-08 12:30N 46°05' W 122°56'0 0.0
2018-Jun-08 11:57N 46°05' W 122°56'0 0.0
2018-Jun-08 11:27N 46°05' W 122°56'0 0.0
2018-Jun-08 11:00N 46°05' W 122°56'0 0.0
2018-Jun-08 10:24N 46°05' W 122°56'0 0.0
2018-Jun-08 09:39N 46°05' W 122°56'0 0.0
2018-Jun-08 09:30N 46°05' W 122°56'0 0.0
2018-Jun-08 08:54N 46°05' W 122°56'0 0.0
2018-Jun-08 08:30N 46°05' W 122°56'0 0.0
2018-Jun-08 07:54N 46°05' W 122°56'0 0.0
2018-Jun-08 07:30N 46°05' W 122°56'0 0.0
2018-Jun-08 06:57N 46°05' W 122°56'0 0.0
2018-Jun-08 06:27N 46°05' W 122°56'0 0.0
2018-Jun-08 06:00N 46°05' W 122°56'0 0.0
2018-Jun-08 05:30N 46°05' W 122°56'0 0.0
2018-Jun-08 04:57N 46°05' W 122°56'0 0.0
2018-Jun-08 04:30N 46°05' W 122°56'0 0.0
2018-Jun-08 03:57N 46°05' W 122°56'0 0.0
2018-Jun-08 03:30N 46°05' W 122°56'0 0.0
2018-Jun-08 02:27N 46°05' W 122°56'0 0.0
2018-Jun-08 02:00N 46°05' W 122°56'0 0.0
2018-Jun-08 01:30N 46°05' W 122°56'0 0.0
2018-Jun-08 00:42N 46°05' W 122°56'0 0.0
2018-Jun-08 00:30N 46°05' W 122°56'0 0.0
2018-Jun-08 00:00N 46°05' W 122°56'0 0.0
2018-Jun-07 23:30N 46°05' W 122°56'0 0.0
2018-Jun-07 23:00N 46°05' W 122°56'0 0.0
2018-Jun-07 22:09N 46°05' W 122°56'0 0.0
2018-Jun-07 22:00N 46°05' W 122°56'  

Dump ship's entire track history